Box Emma — V7WY6 — position and weather

sailwx.info

Track history (hours):
 
Tides and Currents Weather Stations Pressure Air Temp Water Temp Dewpoint Dewpoint Depression Visibility Wind Speed Wind Dir Waves Ship Positions

Box Emma

Last reported at 2015-Aug-12 10:31 UTC. Time now 2015-Aug-29 00:14 UTC.
Position N 02°56' E 101°18'.
Warning: this ship's position is 16 days out of date.

Length 294 m; draft 11.7 m.

Type: Ship (hazmat cat A). MMSI: 538004424.

Date/timePositionNaut miles runAvg speedWind from/ knotsBaromVisibWave heightAir tempDewpointWater temp
2015-Aug-12 10:31N 02°56' E 101°18'0 0.0
2015-Aug-12 09:30N 02°56' E 101°18'0 0.0
2015-Aug-12 08:32N 02°56' E 101°18'0 0.0
2015-Aug-12 06:33N 02°56' E 101°18'0 0.2
2015-Aug-12 05:32N 02°56' E 101°17'0 0.0
2015-Aug-12 03:31N 02°56' E 101°17'0 0.2
2015-Aug-12 02:30N 02°56' E 101°18'0 0.0
2015-Aug-12 01:28N 02°56' E 101°18'0 0.0
2015-Aug-12 00:34N 02°56' E 101°18'0 0.0
2015-Aug-11 22:32N 02°56' E 101°18'0 0.0
2015-Aug-11 21:31N 02°56' E 101°18'0 0.0
2015-Aug-11 20:31N 02°56' E 101°18'0 0.0
2015-Aug-11 19:27N 02°56' E 101°18'1 0.5
2015-Aug-11 17:34N 02°55' E 101°17'11 5.0
2015-Aug-11 15:25N 02°45' E 101°16'0 0.0
2015-Aug-11 14:13N 02°45' E 101°16'0 0.1
2015-Aug-11 12:33N 02°45' E 101°16'0 0.0
2015-Aug-11 10:32N 02°45' E 101°16'1 0.7
2015-Aug-11 08:34N 02°44' E 101°17'2110.6
2015-Aug-11 06:33N 02°32' E 101°34'1211.6
2015-Aug-11 05:33N 02°25' E 101°43'14512.0
2015-Aug-10 17:28N 01°10' E 103°48'6 6.5
2015-Aug-10 16:32N 01°15' E 103°51'1 1.4
2015-Aug-10 15:32N 01°16' E 103°50'0 0.0
2015-Aug-10 14:28N 01°16' E 103°50'0 0.0
2015-Aug-10 13:28N 01°16' E 103°50'0 0.0
2015-Aug-10 12:27N 01°16' E 103°50'0 0.0
2015-Aug-10 11:33N 01°16' E 103°50'0 0.0
2015-Aug-10 10:33N 01°16' E 103°50'0 0.0
2015-Aug-10 09:20N 01°16' E 103°50'0 0.0
2015-Aug-10 08:32N 01°16' E 103°50'0 0.0
2015-Aug-10 07:31N 01°16' E 103°50'0 0.0
2015-Aug-10 06:33N 01°16' E 103°50'0 0.0
2015-Aug-10 05:27N 01°16' E 103°50'0 0.0
2015-Aug-10 04:32N 01°16' E 103°50'0 0.0
2015-Aug-10 03:32N 01°16' E 103°50'0 0.0
2015-Aug-10 02:31N 01°16' E 103°50'0 0.0
2015-Aug-10 01:31N 01°16' E 103°50'0 0.0
2015-Aug-10 00:31N 01°16' E 103°50'0 0.0
2015-Aug-09 23:31N 01°16' E 103°50'0 0.0
2015-Aug-09 22:31N 01°16' E 103°50'3 2.9
2015-Aug-09 21:33N 01°15' E 103°52'7 7.1
2015-Aug-09 20:33N 01°15' E 103°59'  
Track history (hours):
 
Tides and Currents Weather Stations Pressure Air Temp Water Temp Dewpoint Dewpoint Depression Visibility Wind Speed Wind Dir Waves Ship Positions

Box Emma

Last reported at 2015-Aug-12 10:31 UTC. Time now 2015-Aug-29 00:14 UTC.
Position N 02°56' E 101°18'.
Warning: this ship's position is 16 days out of date.

Length 294 m; draft 11.7 m.

Type: Ship (hazmat cat A). MMSI: 538004424.

Date/timePositionNaut miles runAvg speedWind from/ knotsBaromVisibWave heightAir tempDewpointWater temp
2015-Aug-12 10:31N 02°56' E 101°18'0 0.0
2015-Aug-12 09:30N 02°56' E 101°18'0 0.0
2015-Aug-12 08:32N 02°56' E 101°18'0 0.0
2015-Aug-12 06:33N 02°56' E 101°18'0 0.2
2015-Aug-12 05:32N 02°56' E 101°17'0 0.0
2015-Aug-12 03:31N 02°56' E 101°17'0 0.2
2015-Aug-12 02:30N 02°56' E 101°18'0 0.0
2015-Aug-12 01:28N 02°56' E 101°18'0 0.0
2015-Aug-12 00:34N 02°56' E 101°18'0 0.0
2015-Aug-11 22:32N 02°56' E 101°18'0 0.0
2015-Aug-11 21:31N 02°56' E 101°18'0 0.0
2015-Aug-11 20:31N 02°56' E 101°18'0 0.0
2015-Aug-11 19:27N 02°56' E 101°18'1 0.5
2015-Aug-11 17:34N 02°55' E 101°17'11 5.0
2015-Aug-11 15:25N 02°45' E 101°16'0 0.0
2015-Aug-11 14:13N 02°45' E 101°16'0 0.1
2015-Aug-11 12:33N 02°45' E 101°16'0 0.0
2015-Aug-11 10:32N 02°45' E 101°16'1 0.7
2015-Aug-11 08:34N 02°44' E 101°17'2110.6
2015-Aug-11 06:33N 02°32' E 101°34'1211.6
2015-Aug-11 05:33N 02°25' E 101°43'14512.0
2015-Aug-10 17:28N 01°10' E 103°48'6 6.5
2015-Aug-10 16:32N 01°15' E 103°51'1 1.4
2015-Aug-10 15:32N 01°16' E 103°50'0 0.0
2015-Aug-10 14:28N 01°16' E 103°50'0 0.0
2015-Aug-10 13:28N 01°16' E 103°50'0 0.0
2015-Aug-10 12:27N 01°16' E 103°50'0 0.0
2015-Aug-10 11:33N 01°16' E 103°50'0 0.0
2015-Aug-10 10:33N 01°16' E 103°50'0 0.0
2015-Aug-10 09:20N 01°16' E 103°50'0 0.0
2015-Aug-10 08:32N 01°16' E 103°50'0 0.0
2015-Aug-10 07:31N 01°16' E 103°50'0 0.0
2015-Aug-10 06:33N 01°16' E 103°50'0 0.0
2015-Aug-10 05:27N 01°16' E 103°50'0 0.0
2015-Aug-10 04:32N 01°16' E 103°50'0 0.0
2015-Aug-10 03:32N 01°16' E 103°50'0 0.0
2015-Aug-10 02:31N 01°16' E 103°50'0 0.0
2015-Aug-10 01:31N 01°16' E 103°50'0 0.0
2015-Aug-10 00:31N 01°16' E 103°50'0 0.0
2015-Aug-09 23:31N 01°16' E 103°50'0 0.0
2015-Aug-09 22:31N 01°16' E 103°50'3 2.9
2015-Aug-09 21:33N 01°15' E 103°52'7 7.1
2015-Aug-09 20:33N 01°15' E 103°59'  

Dump ship's entire track history